Montpelier Station, Virginia
Current Conditions -  °F | °C
As of 8:55 AM on Monday 20 Oct 2014 (Local Time) from KGVE Reporting Station
Clear Clear  
Wind Chill: 41°   Ceiling: Unl
Heat Index: 41°   Visibility: 10mi
Dew Point: 39°   Wind: 3mph
Humidity: 92%   Direction: 190°S
Pressure: 30.11"   Gusts: NA
Location:  38.22°N, 78.17°W
Report Text: KGVE 201255Z AUTO 19003KT 10SM CLR 05/04 A3011 RMK AO1 T00500038
Loading
Personal Weather Stations






























Interactive Weather Map
Tropical Storm Tracking
New forecast layout! Learn more

10-Day Weather Forecast

Advertisements
Track Severe Weather on mobile